Time;durP1;ratioP1;P1;durP2;ratioP2;P2;SDS_P1;SDS_P2;PMS_P1;PMS_P2;Temp;Humidity;BMP_temperature;BMP_pressure;BME280_temperature;BME280_humidity;BME280_pressure;Samples;Min_cycle;Max_cycle;Signal;HPM_P1;HPM_P2
2021/12/06 00:00:40;;;;;;;8.17;5.53;;;5.80;99.90;;;;;;5072696;28;20455;-68
2021/12/06 00:03:11;;;;;;;12.63;7.10;;;5.70;99.90;;;;;;5084025;28;20427;-69
2021/12/06 00:05:38;;;;;;;8.90;6.70;;;5.70;99.90;;;;;;5065041;28;20548;-67
2021/12/06 00:08:07;;;;;;;13.47;6.60;;;5.40;99.90;;;;;;5070784;28;20531;-69
2021/12/06 00:10:34;;;;;;;13.57;7.17;;;5.40;99.90;;;;;;5081084;28;21087;-69
2021/12/06 00:13:01;;;;;;;14.33;8.50;;;5.40;99.90;;;;;;5078528;28;20926;-69
2021/12/06 00:15:32;;;;;;;10.50;5.73;;;5.30;99.90;;;;;;5076717;28;20462;-68
2021/12/06 00:17:59;;;;;;;8.70;6.10;;;5.30;99.90;;;;;;5075205;28;20558;-70
2021/12/06 00:20:28;;;;;;;6.23;5.67;;;5.30;99.90;;;;;;5070594;28;20493;-69
2021/12/06 00:22:55;;;;;;;6.53;5.87;;;5.30;99.90;;;;;;5073728;28;20540;-69
2021/12/06 00:25:23;;;;;;;9.70;6.97;;;5.30;99.90;;;;;;5081621;28;20440;-69
2021/12/06 00:27:50;;;;;;;9.90;6.50;;;5.20;99.90;;;;;;5065010;28;20561;-69
2021/12/06 00:30:17;;;;;;;10.30;6.50;;;5.10;99.90;;;;;;5084603;28;20520;-69
2021/12/06 00:32:46;;;;;;;10.10;5.90;;;5.10;99.90;;;;;;5077435;28;20478;-68
2021/12/06 00:35:18;;;;;;;7.50;4.90;;;5.00;99.90;;;;;;5055403;28;20516;-68
2021/12/06 00:37:54;;;;;;;7.63;5.20;;;4.90;99.90;;;;;;5070899;28;20927;-69
2021/12/06 00:40:24;;;;;;;6.17;4.03;;;4.60;99.90;;;;;;5075537;28;20429;-69
2021/12/06 00:42:51;;;;;;;8.57;6.40;;;4.60;99.90;;;;;;5073685;28;20545;-69
2021/12/06 00:45:18;;;;;;;9.00;5.40;;;4.40;99.90;;;;;;5071719;28;20848;-68
2021/12/06 00:47:45;;;;;;;11.10;8.70;;;4.30;99.90;;;;;;5074213;28;20517;-68
2021/12/06 00:50:13;;;;;;;6.37;4.67;;;4.30;99.90;;;;;;5073741;28;20435;-69
2021/12/06 00:52:40;;;;;;;10.20;6.90;;;4.30;99.90;;;;;;5071006;28;20502;-68
2021/12/06 00:55:09;;;;;;;7.60;4.87;;;4.30;99.90;;;;;;5075675;28;20838;-69
2021/12/06 00:57:38;;;;;;;14.47;5.30;;;4.30;99.90;;;;;;5069349;28;20458;-68
2021/12/06 01:00:10;;;;;;;6.63;5.30;;;4.30;99.90;;;;;;5067021;28;20453;-67
2021/12/06 01:02:37;;;;;;;11.70;6.97;;;4.20;99.90;;;;;;5075003;28;20888;-70
2021/12/06 01:05:06;;;;;;;8.17;4.90;;;4.20;99.90;;;;;;5067842;28;20466;-70
2021/12/06 01:07:33;;;;;;;12.77;6.30;;;4.20;99.90;;;;;;5042247;28;21005;-69
2021/12/06 01:10:00;;;;;;;8.90;5.33;;;4.10;99.90;;;;;;5071766;28;20831;-68
2021/12/06 01:12:27;;;;;;;10.10;5.90;;;4.10;99.90;;;;;;5077905;28;20504;-68
2021/12/06 01:14:56;;;;;;;18.90;6.07;;;4.00;99.90;;;;;;5071965;28;20512;-68
2021/12/06 01:17:23;;;;;;;17.77;6.50;;;4.00;99.90;;;;;;5073989;28;20854;-68
2021/12/06 01:19:50;;;;;;;6.63;5.00;;;3.90;99.90;;;;;;5059442;28;20450;-68
2021/12/06 01:22:25;;;;;;;14.83;9.60;;;3.80;99.90;;;;;;5085645;28;20924;-69
2021/12/06 01:24:57;;;;;;;6.23;4.63;;;3.80;99.90;;;;;;5063730;28;21367;-67
2021/12/06 01:30:26;;;;;;;6.80;5.23;;;3.80;99.90;;;;;;5060873;28;20442;-67
2021/12/06 01:33:33;;;;;;;8.90;5.57;;;3.90;99.90;;;;;;5077083;28;20428;-68
2021/12/06 01:41:32;;;;;;;6.93;4.97;;;3.60;99.90;;;;;;5076715;28;20435;-67
2021/12/06 01:44:08;;;;;;;8.33;5.80;;;3.50;99.90;;;;;;5084128;28;25490;-66
2021/12/06 01:46:39;;;;;;;12.23;6.07;;;3.50;99.90;;;;;;5075023;28;21193;-67
2021/12/06 01:49:07;;;;;;;9.47;7.53;;;3.50;99.90;;;;;;5075776;28;20886;-69
2021/12/06 01:51:35;;;;;;;9.67;4.97;;;3.60;99.90;;;;;;5064853;28;20516;-68
2021/12/06 01:54:04;;;;;;;7.60;5.93;;;3.60;99.90;;;;;;5074597;28;20550;-67
2021/12/06 01:56:31;;;;;;;12.00;6.70;;;3.50;99.90;;;;;;5072507;28;20453;-68
2021/12/06 01:58:58;;;;;;;6.07;5.07;;;3.50;99.90;;;;;;5080571;28;20500;-68
2021/12/06 02:01:25;;;;;;;8.00;6.40;;;3.50;99.90;;;;;;5064180;28;20512;-68
2021/12/06 02:03:53;;;;;;;5.67;5.00;;;3.60;99.90;;;;;;5058205;28;20441;-68
2021/12/06 02:06:21;;;;;;;6.53;4.80;;;3.50;99.90;;;;;;5063231;28;20460;-68
2021/12/06 02:08:48;;;;;;;9.57;5.40;;;3.40;99.90;;;;;;5067676;28;20919;-67
2021/12/06 02:11:15;;;;;;;10.33;7.00;;;3.30;99.90;;;;;;5071276;28;20457;-68
2021/12/06 02:13:49;;;;;;;5.70;5.00;;;3.20;99.90;;;;;;5074732;28;20573;-67
2021/12/06 02:16:19;;;;;;;5.53;5.00;;;3.10;99.90;;;;;;5074585;28;20839;-66
2021/12/06 02:19:00;;;;;;;8.40;5.77;;;3.20;99.90;;;;;;5069545;28;20425;-67
2021/12/06 02:21:33;;;;;;;9.93;4.87;;;3.10;99.90;;;;;;5076087;28;20458;-68
2021/12/06 02:24:03;;;;;;;7.70;5.00;;;2.90;99.90;;;;;;5070305;28;20471;-68
2021/12/06 02:26:31;;;;;;;6.73;5.30;;;3.00;99.90;;;;;;5070251;28;20983;-67
2021/12/06 02:28:58;;;;;;;11.40;6.60;;;2.90;99.90;;;;;;5063067;28;20665;-68
2021/12/06 02:31:26;;;;;;;7.47;5.33;;;2.90;99.90;;;;;;5070185;28;20944;-68
2021/12/06 02:33:54;;;;;;;5.60;4.87;;;2.70;99.90;;;;;;5077749;28;20438;-68
2021/12/06 02:36:22;;;;;;;7.83;5.27;;;2.80;99.90;;;;;;5070868;28;20436;-69
2021/12/06 02:38:50;;;;;;;5.50;4.33;;;2.70;99.90;;;;;;5056496;28;20554;-68
2021/12/06 02:41:19;;;;;;;4.87;4.23;;;2.70;99.90;;;;;;5080300;28;20456;-68
2021/12/06 02:43:47;;;;;;;16.67;8.00;;;2.40;99.90;;;;;;5077626;28;20458;-68
2021/12/06 02:46:14;;;;;;;12.40;6.70;;;2.40;99.90;;;;;;5069006;28;20533;-68
2021/12/06 02:48:41;;;;;;;24.50;7.57;;;2.40;99.90;;;;;;5075071;28;20831;-68
2021/12/06 02:51:09;;;;;;;5.97;4.00;;;2.30;99.90;;;;;;5067792;28;20482;-67
2021/12/06 02:53:38;;;;;;;7.13;5.23;;;2.30;99.90;;;;;;5081378;28;20474;-67
2021/12/06 02:56:18;;;;;;;21.37;7.07;;;2.20;99.90;;;;;;5080987;28;20437;-67
2021/12/06 02:58:56;;;;;;;8.97;6.93;;;2.30;99.90;;;;;;5070170;28;20912;-68
2021/12/06 03:01:29;;;;;;;12.50;5.40;;;2.30;99.90;;;;;;5077028;28;20437;-68
2021/12/06 03:03:57;;;;;;;14.33;9.37;;;2.40;99.90;;;;;;5069076;28;21033;-68
2021/12/06 03:06:27;;;;;;;15.90;7.60;;;2.30;99.90;;;;;;5065420;28;20493;-66
2021/12/06 03:09:02;;;;;;;21.47;7.90;;;2.40;99.90;;;;;;5070989;28;20436;-68
2021/12/06 03:11:32;;;;;;;8.73;4.90;;;2.30;99.90;;;;;;5075470;28;20519;-67
2021/12/06 03:14:00;;;;;;;12.77;8.43;;;2.20;99.90;;;;;;5072389;28;20457;-68
2021/12/06 03:16:27;;;;;;;8.20;5.67;;;2.30;99.90;;;;;;5067803;28;20526;-68
2021/12/06 03:18:55;;;;;;;8.83;5.47;;;2.20;99.90;;;;;;5065083;28;20578;-68
2021/12/06 03:21:24;;;;;;;12.77;5.83;;;2.20;99.90;;;;;;5081616;28;20440;-68
2021/12/06 03:23:53;;;;;;;5.70;5.20;;;2.10;99.90;;;;;;5083961;28;20534;-68
2021/12/06 03:26:20;;;;;;;9.10;5.83;;;2.10;99.90;;;;;;5077444;28;20444;-69
2021/12/06 03:28:48;;;;;;;7.93;4.90;;;2.10;99.90;;;;;;5064386;28;20451;-70
2021/12/06 03:31:16;;;;;;;8.97;4.50;;;2.10;99.90;;;;;;5079914;28;20920;-69
2021/12/06 03:33:47;;;;;;;5.00;4.20;;;2.10;99.90;;;;;;5073292;28;20450;-69
2021/12/06 03:36:17;;;;;;;8.13;4.70;;;2.00;99.90;;;;;;5078219;28;20495;-69
2021/12/06 03:38:44;;;;;;;11.27;4.20;;;2.00;99.90;;;;;;5077686;28;20546;-69
2021/12/06 03:41:13;;;;;;;5.83;5.23;;;1.90;99.90;;;;;;5088438;28;20536;-68
2021/12/06 03:43:42;;;;;;;8.70;4.53;;;2.00;99.90;;;;;;5065583;28;20490;-69
2021/12/06 03:46:11;;;;;;;6.33;5.27;;;2.10;99.90;;;;;;5066208;28;20542;-70
2021/12/06 03:48:38;;;;;;;14.53;6.80;;;2.10;99.90;;;;;;5072140;28;20680;-68
2021/12/06 03:51:06;;;;;;;7.43;5.23;;;2.00;99.90;;;;;;5075455;28;20424;-70
2021/12/06 03:53:34;;;;;;;7.23;5.37;;;1.90;99.90;;;;;;5079924;28;20469;-69
2021/12/06 03:56:01;;;;;;;9.60;5.10;;;1.90;99.90;;;;;;5068688;28;20432;-68
2021/12/06 03:58:28;;;;;;;7.37;5.23;;;2.00;99.90;;;;;;5058597;28;21381;-70
2021/12/06 04:00:56;;;;;;;5.83;4.60;;;2.10;99.90;;;;;;5053761;28;20444;-69
2021/12/06 04:03:27;;;;;;;7.23;5.17;;;2.00;99.90;;;;;;5076450;28;20882;-69
2021/12/06 04:05:55;;;;;;;9.10;6.10;;;2.00;99.90;;;;;;5070910;28;20498;-70
2021/12/06 04:08:22;;;;;;;7.93;7.13;;;2.00;99.90;;;;;;5072256;28;20482;-68
2021/12/06 04:10:49;;;;;;;10.37;5.43;;;1.80;99.90;;;;;;5070849;28;20428;-69
2021/12/06 04:13:17;;;;;;;6.13;5.53;;;1.70;99.90;;;;;;5067200;28;21081;-68
2021/12/06 04:15:45;;;;;;;6.13;4.23;;;1.50;99.90;;;;;;5066955;28;20508;-68
2021/12/06 04:18:12;;;;;;;6.43;4.70;;;1.60;99.90;;;;;;5067897;28;20848;-68
2021/12/06 04:20:41;;;;;;;8.80;5.80;;;1.50;99.90;;;;;;5059161;28;20598;-67
2021/12/06 04:23:10;;;;;;;9.80;5.90;;;1.50;99.90;;;;;;5058766;28;20499;-69
2021/12/06 04:25:38;;;;;;;15.83;4.93;;;1.60;99.90;;;;;;5063503;28;20539;-69
2021/12/06 04:28:09;;;;;;;6.57;4.23;;;1.70;99.90;;;;;;5057330;28;20577;-69
2021/12/06 04:30:38;;;;;;;6.07;4.40;;;1.80;99.90;;;;;;5063712;28;20501;-69
2021/12/06 04:33:06;;;;;;;8.97;6.77;;;1.90;99.90;;;;;;5063191;28;21003;-70
2021/12/06 04:35:36;;;;;;;8.50;4.87;;;1.90;99.90;;;;;;5063461;28;20801;-70
2021/12/06 04:38:05;;;;;;;5.90;5.37;;;1.80;99.90;;;;;;5056263;28;20689;-69
2021/12/06 04:40:32;;;;;;;6.97;5.13;;;1.70;99.90;;;;;;5069302;28;20503;-68
2021/12/06 04:43:03;;;;;;;8.50;5.00;;;1.70;99.90;;;;;;5058412;28;20457;-68
2021/12/06 04:45:31;;;;;;;5.20;4.10;;;1.80;99.90;;;;;;5049349;28;20492;-67
2021/12/06 04:47:58;;;;;;;5.73;5.20;;;1.70;99.90;;;;;;5060988;28;20833;-68
2021/12/06 04:50:28;;;;;;;7.20;4.00;;;1.70;99.90;;;;;;5071010;28;20532;-70
2021/12/06 04:52:58;;;;;;;6.93;4.50;;;1.80;99.90;;;;;;5062417;28;20514;-70
2021/12/06 04:58:01;;;;;;;6.97;5.07;;;1.60;99.90;;;;;;5058402;28;20497;-70
2021/12/06 05:00:39;;;;;;;15.07;5.60;;;1.60;99.90;;;;;;5075323;28;20482;-71
2021/12/06 05:03:07;;;;;;;8.40;5.70;;;1.50;99.90;;;;;;5074552;28;20836;-70
2021/12/06 05:05:38;;;;;;;10.80;6.50;;;1.60;99.90;;;;;;5076488;28;20520;-69
2021/12/06 05:08:09;;;;;;;10.20;4.53;;;1.60;99.90;;;;;;5081000;28;20459;-71
2021/12/06 05:10:36;;;;;;;7.40;6.70;;;1.60;99.90;;;;;;5076696;28;20499;-69
2021/12/06 05:13:04;;;;;;;5.60;5.03;;;1.60;99.90;;;;;;5085420;28;20459;-69
2021/12/06 05:15:32;;;;;;;6.47;5.70;;;1.60;99.90;;;;;;5085946;28;20469;-71
2021/12/06 05:17:59;;;;;;;6.10;5.50;;;1.80;99.90;;;;;;5074475;28;20881;-67
2021/12/06 05:20:26;;;;;;;9.57;4.80;;;1.90;99.90;;;;;;5078866;28;20432;-70
2021/12/06 05:22:54;;;;;;;9.00;3.83;;;2.00;99.90;;;;;;5083811;28;20435;-70
2021/12/06 05:25:23;;;;;;;7.07;5.33;;;2.00;99.90;;;;;;5081856;28;21310;-70
2021/12/06 05:27:50;;;;;;;6.13;4.17;;;2.00;99.90;;;;;;5080180;28;20459;-72
2021/12/06 05:30:21;;;;;;;9.60;4.80;;;2.00;99.90;;;;;;5057348;28;20871;-70
2021/12/06 05:32:49;;;;;;;8.30;5.70;;;2.00;99.90;;;;;;5064335;28;20734;-71
2021/12/06 05:35:17;;;;;;;4.90;4.50;;;1.90;99.90;;;;;;5058809;28;20436;-72
2021/12/06 05:37:46;;;;;;;8.83;4.93;;;1.80;99.90;;;;;;5056298;28;20444;-67
2021/12/06 05:40:16;;;;;;;8.80;4.60;;;1.80;99.90;;;;;;5058601;28;20796;-69
2021/12/06 05:42:44;;;;;;;6.10;4.13;;;1.60;99.90;;;;;;5071770;28;20461;-69
2021/12/06 05:45:15;;;;;;;9.33;5.80;;;1.60;99.90;;;;;;5065489;28;20440;-72
2021/12/06 05:47:43;;;;;;;6.23;5.40;;;1.40;99.90;;;;;;5070389;28;20464;-71
2021/12/06 05:50:11;;;;;;;6.40;4.30;;;1.30;99.90;;;;;;5073233;28;20463;-71
2021/12/06 05:52:38;;;;;;;7.23;4.00;;;1.40;99.90;;;;;;5065736;28;20432;-68
2021/12/06 05:55:08;;;;;;;12.73;5.60;;;1.60;99.90;;;;;;5067421;28;20543;-69
2021/12/06 05:57:36;;;;;;;10.10;5.87;;;1.60;99.90;;;;;;5075540;28;20844;-69
2021/12/06 06:00:05;;;;;;;6.60;4.27;;;1.60;99.90;;;;;;5085835;28;20441;-69
2021/12/06 06:02:32;;;;;;;13.90;6.87;;;1.70;99.90;;;;;;5082982;28;20436;-69
2021/12/06 06:05:00;;;;;;;7.23;5.40;;;1.80;99.90;;;;;;5085650;28;20449;-70
2021/12/06 06:07:27;;;;;;;7.17;4.70;;;1.80;99.90;;;;;;5064561;28;20474;-69
2021/12/06 06:09:54;;;;;;;5.87;4.47;;;1.70;99.90;;;;;;5082092;28;20482;-69
2021/12/06 06:12:22;;;;;;;9.83;5.90;;;1.80;99.90;;;;;;5084865;28;20464;-69
2021/12/06 06:14:49;;;;;;;11.40;6.53;;;1.90;99.90;;;;;;5089760;28;20426;-70
2021/12/06 06:17:19;;;;;;;11.43;4.77;;;2.00;99.90;;;;;;5084980;28;21072;-68
2021/12/06 06:19:49;;;;;;;8.17;5.60;;;2.10;99.90;;;;;;5087079;28;20452;-69
2021/12/06 06:22:17;;;;;;;6.70;5.10;;;2.20;99.90;;;;;;5086835;28;20509;-69
2021/12/06 06:24:44;;;;;;;9.27;5.40;;;2.20;99.90;;;;;;5076099;28;20501;-68
2021/12/06 06:27:11;;;;;;;8.70;5.30;;;2.10;99.90;;;;;;5081011;28;20466;-71
2021/12/06 06:29:38;;;;;;;9.97;7.50;;;2.20;99.90;;;;;;5097707;28;20481;-70
2021/12/06 06:32:06;;;;;;;23.80;8.63;;;2.10;99.90;;;;;;5082440;28;20436;-70
2021/12/06 06:34:34;;;;;;;16.97;8.53;;;2.20;99.90;;;;;;5088542;28;20523;-68
2021/12/06 06:37:02;;;;;;;7.47;5.70;;;2.10;99.90;;;;;;5088337;28;20531;-69
2021/12/06 06:39:31;;;;;;;11.20;7.47;;;2.20;99.90;;;;;;5092957;28;20437;-68
2021/12/06 06:41:58;;;;;;;12.67;5.67;;;2.00;99.90;;;;;;5090436;28;20444;-69
2021/12/06 06:44:25;;;;;;;40.67;8.20;;;1.90;99.90;;;;;;5074976;28;20433;-70
2021/12/06 06:46:53;;;;;;;15.17;8.77;;;1.90;99.90;;;;;;5084805;28;20580;-70
2021/12/06 06:49:20;;;;;;;17.70;10.03;;;2.00;99.90;;;;;;5082629;28;20546;-69
2021/12/06 06:51:48;;;;;;;24.90;8.30;;;2.20;99.90;;;;;;5090415;28;20452;-69
2021/12/06 06:54:16;;;;;;;17.97;8.40;;;2.40;99.90;;;;;;5085511;28;20565;-71
2021/12/06 06:56:45;;;;;;;32.07;10.30;;;2.50;99.90;;;;;;5082358;28;20490;-70
2021/12/06 06:59:12;;;;;;;36.87;9.20;;;2.60;99.90;;;;;;5086772;28;20807;-69
2021/12/06 07:01:39;;;;;;;19.10;8.77;;;2.70;99.90;;;;;;5085875;28;20795;-70
2021/12/06 07:04:06;;;;;;;21.27;9.67;;;2.70;99.90;;;;;;5090139;28;20966;-69
2021/12/06 07:06:33;;;;;;;10.87;6.90;;;2.80;99.90;;;;;;5080896;28;20477;-69
2021/12/06 07:09:00;;;;;;;9.67;6.83;;;2.90;99.90;;;;;;5086715;28;20505;-69
2021/12/06 07:11:28;;;;;;;19.50;8.83;;;2.80;99.90;;;;;;5079822;28;20456;-70
2021/12/06 07:13:57;;;;;;;14.77;9.37;;;2.80;99.90;;;;;;5082986;28;20466;-69
2021/12/06 07:16:26;;;;;;;10.20;7.10;;;2.80;99.90;;;;;;5083499;28;21013;-69
2021/12/06 07:18:53;;;;;;;16.53;7.20;;;2.60;99.90;;;;;;5089861;28;20817;-70
2021/12/06 07:21:20;;;;;;;21.33;8.80;;;2.50;99.90;;;;;;5091237;28;20762;-69
2021/12/06 07:23:48;;;;;;;10.27;6.80;;;2.30;99.90;;;;;;5074805;28;21173;-68
2021/12/06 07:26:18;;;;;;;15.70;7.43;;;2.30;99.90;;;;;;5079322;28;20505;-69
2021/12/06 07:28:47;;;;;;;6.60;5.30;;;2.30;99.90;;;;;;5081525;28;20539;-69
2021/12/06 07:31:15;;;;;;;6.90;3.47;;;2.20;99.90;;;;;;5085549;28;20486;-69
2021/12/06 07:33:44;;;;;;;6.53;5.90;;;2.20;99.90;;;;;;5083091;28;20448;-68
2021/12/06 07:36:11;;;;;;;16.87;8.27;;;2.10;99.90;;;;;;5092906;28;20451;-69
2021/12/06 07:38:39;;;;;;;11.00;6.37;;;2.10;99.90;;;;;;5086074;28;20452;-69
2021/12/06 07:41:08;;;;;;;5.17;4.27;;;2.10;99.90;;;;;;5080497;28;20459;-69
2021/12/06 07:43:35;;;;;;;4.10;3.67;;;2.10;99.90;;;;;;5083173;28;20521;-69
2021/12/06 07:46:02;;;;;;;20.93;8.77;;;2.00;99.90;;;;;;5087038;28;20501;-69
2021/12/06 07:48:31;;;;;;;11.57;6.07;;;2.00;99.90;;;;;;5084535;28;20543;-70
2021/12/06 07:50:59;;;;;;;8.40;6.57;;;2.10;99.90;;;;;;5085237;28;20485;-69
2021/12/06 07:53:27;;;;;;;15.20;8.93;;;2.20;99.90;;;;;;5087182;28;20877;-68
2021/12/06 07:55:54;;;;;;;22.90;9.57;;;2.30;99.90;;;;;;5081370;28;20468;-69
2021/12/06 07:58:21;;;;;;;20.43;7.27;;;2.20;99.90;;;;;;5063743;28;20477;-69
2021/12/06 08:00:52;;;;;;;11.10;7.17;;;2.30;99.90;;;;;;5093030;28;20478;-69
2021/12/06 08:03:22;;;;;;;19.87;10.70;;;2.20;99.90;;;;;;5090545;28;20497;-70
2021/12/06 08:05:52;;;;;;;13.33;5.70;;;2.10;99.90;;;;;;5090663;28;20519;-69
2021/12/06 08:08:23;;;;;;;28.80;9.30;;;2.10;99.90;;;;;;5091394;28;20452;-69
2021/12/06 08:10:54;;;;;;;28.53;7.57;;;2.10;99.90;;;;;;5085059;28;20580;-68
2021/12/06 08:13:24;;;;;;;17.40;7.97;;;2.30;99.90;;;;;;5089141;28;20446;-69
2021/12/06 08:15:53;;;;;;;13.27;8.30;;;2.30;99.90;;;;;;5084719;28;20453;-70
2021/12/06 08:18:20;;;;;;;21.60;7.20;;;2.30;99.90;;;;;;5089813;28;20923;-69
2021/12/06 08:20:48;;;;;;;14.43;8.07;;;2.40;99.90;;;;;;5093894;28;20439;-69
2021/12/06 08:23:16;;;;;;;18.60;8.80;;;2.40;99.90;;;;;;5094358;28;20457;-70
2021/12/06 08:25:46;;;;;;;33.83;10.43;;;2.50;99.90;;;;;;5077550;28;20432;-69
2021/12/06 08:28:14;;;;;;;14.03;7.73;;;2.60;99.90;;;;;;5086757;28;20956;-69
2021/12/06 08:30:42;;;;;;;15.87;8.23;;;2.70;99.90;;;;;;5087571;28;20805;-70
2021/12/06 08:33:09;;;;;;;14.90;7.07;;;2.80;99.90;;;;;;5086335;28;20526;-69
2021/12/06 08:35:40;;;;;;;17.23;7.13;;;2.80;99.90;;;;;;5085099;28;20511;-69
2021/12/06 08:38:08;;;;;;;13.77;7.73;;;2.90;99.90;;;;;;5094170;28;20471;-69
2021/12/06 08:40:38;;;;;;;19.27;8.20;;;3.00;99.90;;;;;;5082568;28;20408;-71
2021/12/06 08:43:05;;;;;;;11.23;6.97;;;3.20;99.90;;;;;;5087743;28;20481;-69
2021/12/06 08:45:33;;;;;;;17.87;8.33;;;2.90;99.90;;;;;;5070420;28;20472;-70
2021/12/06 08:48:01;;;;;;;8.73;6.97;;;3.00;99.90;;;;;;5086805;28;20453;-70
2021/12/06 08:50:30;;;;;;;24.40;6.27;;;3.20;99.90;;;;;;5084326;28;20469;-68
2021/12/06 08:52:57;;;;;;;7.43;4.80;;;3.10;99.90;;;;;;5083337;28;20863;-70
2021/12/06 08:55:25;;;;;;;12.07;6.83;;;3.10;99.90;;;;;;5076791;28;20432;-69
2021/12/06 08:57:55;;;;;;;29.37;10.50;;;2.80;99.90;;;;;;5083674;28;20448;-69
2021/12/06 09:00:24;;;;;;;16.83;8.43;;;2.90;99.90;;;;;;5083808;28;20457;-69
2021/12/06 09:02:52;;;;;;;20.57;9.50;;;3.00;99.90;;;;;;5087577;28;20428;-70
2021/12/06 09:05:19;;;;;;;9.73;7.93;;;3.00;99.90;;;;;;5077331;28;20501;-70
2021/12/06 09:07:48;;;;;;;15.80;8.00;;;2.90;99.90;;;;;;5089819;28;20487;-70
2021/12/06 09:10:15;;;;;;;10.27;7.57;;;3.10;99.90;;;;;;5075532;28;20488;-68
2021/12/06 09:12:42;;;;;;;13.90;7.17;;;3.20;99.90;;;;;;5092098;28;20917;-70
2021/12/06 09:15:13;;;;;;;24.33;6.40;;;3.10;99.90;;;;;;5065439;28;20468;-69
2021/12/06 09:17:42;;;;;;;18.27;6.53;;;3.20;99.90;;;;;;5077272;28;20612;-70
2021/12/06 09:20:12;;;;;;;21.10;8.63;;;3.20;99.90;;;;;;5083907;28;20972;-70
2021/12/06 09:22:40;;;;;;;21.40;8.03;;;3.30;99.90;;;;;;5084346;28;20431;-70
2021/12/06 09:25:11;;;;;;;15.00;9.30;;;3.30;99.90;;;;;;5077217;28;20842;-70
2021/12/06 09:27:38;;;;;;;20.17;9.10;;;3.40;99.90;;;;;;5082009;28;20472;-69
2021/12/06 09:30:08;;;;;;;9.77;7.40;;;3.50;99.90;;;;;;5078912;28;20472;-70
2021/12/06 09:32:36;;;;;;;17.20;8.63;;;3.60;99.90;;;;;;5083003;28;20468;-71
2021/12/06 09:35:04;;;;;;;20.37;9.80;;;3.50;99.90;;;;;;5085973;28;20467;-71
2021/12/06 09:37:35;;;;;;;17.40;8.30;;;3.70;99.90;;;;;;5084141;28;20556;-70
2021/12/06 09:40:04;;;;;;;14.23;7.40;;;3.60;99.90;;;;;;5078668;28;20421;-69
2021/12/06 09:42:33;;;;;;;20.43;8.57;;;3.60;99.90;;;;;;5088147;28;20444;-70
2021/12/06 09:45:01;;;;;;;12.30;6.10;;;3.70;99.90;;;;;;5069063;28;20438;-68
2021/12/06 09:47:30;;;;;;;26.23;9.53;;;3.80;99.90;;;;;;5089581;28;20440;-69
2021/12/06 09:49:59;;;;;;;11.63;6.43;;;3.90;99.90;;;;;;5092041;28;20527;-70
2021/12/06 09:52:26;;;;;;;27.53;12.37;;;3.90;99.90;;;;;;5091882;28;20435;-68
2021/12/06 09:54:55;;;;;;;14.90;9.77;;;3.70;99.90;;;;;;5082367;28;20820;-71
2021/12/06 09:57:23;;;;;;;20.73;7.83;;;3.50;99.90;;;;;;5088069;28;20465;-69
2021/12/06 09:59:51;;;;;;;11.80;6.33;;;3.70;99.90;;;;;;5094559;28;20420;-70
2021/12/06 10:02:20;;;;;;;23.67;9.97;;;3.70;99.90;;;;;;5095014;28;20482;-69
2021/12/06 10:04:50;;;;;;;18.53;9.13;;;3.70;99.90;;;;;;5080720;28;20545;-68
2021/12/06 10:07:20;;;;;;;12.00;8.17;;;3.50;99.90;;;;;;5089090;28;20986;-69
2021/12/06 10:09:49;;;;;;;14.00;5.83;;;3.30;99.90;;;;;;5084760;28;20505;-69
2021/12/06 10:12:17;;;;;;;25.23;10.50;;;3.20;99.90;;;;;;5088941;28;20424;-69
2021/12/06 10:14:44;;;;;;;10.23;5.67;;;3.10;99.90;;;;;;5081426;28;20432;-69
2021/12/06 10:17:15;;;;;;;9.33;6.93;;;3.00;99.90;;;;;;5085624;28;21092;-69
2021/12/06 10:19:43;;;;;;;15.97;8.33;;;3.20;99.90;;;;;;5091549;28;20448;-68
2021/12/06 10:22:10;;;;;;;11.10;6.80;;;2.90;99.90;;;;;;5089333;28;20432;-69
2021/12/06 10:24:39;;;;;;;27.27;10.50;;;3.10;99.90;;;;;;5074198;28;20960;-68
2021/12/06 10:27:09;;;;;;;21.20;9.07;;;3.30;99.90;;;;;;5093923;28;20469;-69
2021/12/06 10:29:44;;;;;;;13.30;7.80;;;3.30;99.90;;;;;;5089189;28;20478;-70
2021/12/06 10:32:14;;;;;;;30.07;11.63;;;3.40;99.90;;;;;;5089806;28;20493;-68
2021/12/06 10:34:47;;;;;;;21.07;9.30;;;3.60;99.90;;;;;;5081711;28;20493;-70
2021/12/06 10:37:36;;;;;;;16.87;8.53;;;3.60;99.90;;;;;;5076672;28;20485;-69
2021/12/06 10:40:09;;;;;;;46.00;9.47;;;3.50;99.90;;;;;;5085108;28;20433;-69
2021/12/06 10:42:38;;;;;;;20.73;9.27;;;3.50;99.90;;;;;;5089865;28;20507;-70
2021/12/06 10:45:09;;;;;;;17.63;9.20;;;3.50;99.90;;;;;;5086062;28;20475;-70
2021/12/06 10:47:36;;;;;;;13.73;6.27;;;3.60;99.90;;;;;;5083621;28;20490;-69
2021/12/06 10:50:12;;;;;;;48.67;10.97;;;3.70;99.90;;;;;;5079943;28;20479;-69
2021/12/06 10:52:52;;;;;;;17.60;7.00;;;3.70;99.90;;;;;;5090367;28;20484;-68
2021/12/06 10:55:24;;;;;;;12.00;7.50;;;3.50;99.90;;;;;;5064228;28;21061;-67
2021/12/06 10:57:54;;;;;;;12.50;8.50;;;3.40;99.90;;;;;;5081330;28;20466;-68
2021/12/06 11:00:37;;;;;;;14.67;7.47;;;3.50;99.90;;;;;;5095372;28;20459;-69
2021/12/06 11:03:05;;;;;;;24.00;15.00;;;3.50;99.90;;;;;;5087479;28;20432;-67
2021/12/06 11:05:35;;;;;;;10.13;6.67;;;3.50;99.90;;;;;;5083899;28;20547;-69
2021/12/06 11:08:11;;;;;;;16.47;9.10;;;3.60;99.90;;;;;;5086601;28;20477;-69
2021/12/06 11:10:45;;;;;;;19.43;9.33;;;3.80;99.90;;;;;;5085000;28;20485;-70
2021/12/06 11:13:20;;;;;;;11.13;5.67;;;4.00;99.90;;;;;;5076396;28;20453;-68
2021/12/06 11:16:00;;;;;;;42.40;9.17;;;3.90;99.90;;;;;;5085717;28;20431;-68
2021/12/06 11:18:36;;;;;;;27.33;9.80;;;4.00;99.90;;;;;;5089827;28;20424;-69
2021/12/06 11:21:06;;;;;;;28.23;11.00;;;4.10;99.90;;;;;;5096864;28;20459;-69
2021/12/06 11:23:33;;;;;;;13.50;7.90;;;4.20;99.90;;;;;;5093820;28;20425;-70
2021/12/06 11:26:04;;;;;;;12.83;7.73;;;4.00;99.90;;;;;;5078279;28;20542;-70
2021/12/06 11:28:33;;;;;;;15.33;9.50;;;4.10;99.90;;;;;;5087391;28;20458;-69
2021/12/06 11:31:04;;;;;;;18.70;9.60;;;4.20;99.90;;;;;;5082756;28;20893;-69
2021/12/06 11:33:34;;;;;;;22.10;8.93;;;4.20;99.90;;;;;;5085655;28;20445;-70
2021/12/06 11:36:02;;;;;;;24.33;8.47;;;4.50;99.90;;;;;;5087591;28;20529;-68
2021/12/06 11:38:30;;;;;;;17.63;8.17;;;4.70;99.90;;;;;;5092590;28;20465;-68
2021/12/06 11:40:58;;;;;;;14.70;8.30;;;4.50;99.90;;;;;;5088007;28;20914;-69
2021/12/06 11:43:27;;;;;;;24.03;11.50;;;4.60;99.90;;;;;;5097876;28;20458;-67
2021/12/06 11:45:57;;;;;;;25.37;10.10;;;4.30;99.90;;;;;;5095975;28;20733;-69
2021/12/06 11:48:27;;;;;;;17.40;9.20;;;4.20;99.90;;;;;;5099781;28;20436;-69
2021/12/06 11:50:56;;;;;;;15.77;8.33;;;4.40;99.90;;;;;;5097078;28;20561;-69
2021/12/06 11:53:26;;;;;;;19.60;8.47;;;4.50;99.90;;;;;;5093354;28;20503;-70
2021/12/06 11:55:56;;;;;;;20.57;8.20;;;4.50;99.90;;;;;;5070194;28;20441;-68
2021/12/06 11:58:28;;;;;;;23.37;8.13;;;4.50;99.90;;;;;;5091637;28;20797;-70
2021/12/06 12:01:10;;;;;;;22.40;7.43;;;4.60;99.90;;;;;;5083285;28;20962;-68
2021/12/06 12:03:38;;;;;;;29.23;10.10;;;4.60;99.90;;;;;;5086032;28;20523;-70
2021/12/06 12:06:22;;;;;;;9.90;7.43;;;4.40;99.90;;;;;;5092892;28;20481;-69
2021/12/06 12:08:49;;;;;;;19.23;9.30;;;4.30;99.90;;;;;;5090086;28;20795;-69
2021/12/06 12:11:16;;;;;;;22.23;10.70;;;4.20;99.90;;;;;;5081116;28;20568;-68
2021/12/06 12:13:44;;;;;;;27.63;6.00;;;4.20;99.90;;;;;;5084626;28;20428;-69
2021/12/06 12:16:13;;;;;;;16.70;8.67;;;4.20;99.90;;;;;;5086218;28;21031;-69
2021/12/06 12:18:42;;;;;;;30.10;7.67;;;4.30;99.90;;;;;;5089434;28;20447;-67
2021/12/06 12:21:11;;;;;;;14.07;8.90;;;4.60;99.90;;;;;;5087035;28;20459;-69
2021/12/06 12:23:38;;;;;;;24.27;8.27;;;4.40;99.90;;;;;;5082287;28;20449;-69
2021/12/06 12:26:12;;;;;;;12.17;6.53;;;4.40;99.90;;;;;;5071233;28;21001;-69
2021/12/06 12:28:50;;;;;;;11.27;5.83;;;4.40;99.90;;;;;;5087277;28;20931;-68
2021/12/06 12:31:21;;;;;;;17.07;7.80;;;4.50;99.90;;;;;;5086466;28;20885;-69
2021/12/06 12:33:50;;;;;;;15.13;6.90;;;4.50;99.90;;;;;;5094471;28;20464;-69
2021/12/06 12:36:20;;;;;;;21.03;7.70;;;4.40;99.90;;;;;;5089311;28;20977;-69
2021/12/06 12:38:50;;;;;;;16.23;7.97;;;4.40;99.90;;;;;;5087204;28;20501;-68
2021/12/06 12:41:20;;;;;;;14.53;8.30;;;4.50;99.90;;;;;;5093657;28;20424;-69
2021/12/06 12:43:50;;;;;;;15.57;8.30;;;4.60;99.90;;;;;;5083261;28;20825;-69
2021/12/06 12:46:22;;;;;;;10.87;8.33;;;4.60;99.90;;;;;;5087090;28;20463;-69
2021/12/06 12:48:54;;;;;;;12.07;6.70;;;4.60;99.90;;;;;;5095687;28;20469;-69
2021/12/06 12:51:25;;;;;;;12.77;8.47;;;4.60;99.90;;;;;;5091320;28;20469;-69
2021/12/06 12:54:00;;;;;;;19.10;9.57;;;4.70;99.90;;;;;;5081256;28;20863;-68
2021/12/06 12:56:29;;;;;;;20.77;9.27;;;4.80;99.90;;;;;;5086034;28;20551;-68
2021/12/06 12:58:56;;;;;;;15.60;8.60;;;4.90;99.90;;;;;;5090922;28;20416;-68
2021/12/06 13:01:26;;;;;;;14.83;8.67;;;5.00;99.90;;;;;;5094102;28;20412;-70
2021/12/06 13:03:56;;;;;;;25.57;12.63;;;5.20;99.90;;;;;;5068696;28;20630;-69
2021/12/06 13:06:26;;;;;;;13.20;8.20;;;5.50;99.90;;;;;;5077305;28;20847;-70
2021/12/06 13:08:55;;;;;;;22.87;8.97;;;5.50;99.90;;;;;;5085836;28;20440;-70
2021/12/06 13:11:25;;;;;;;19.97;9.80;;;5.90;99.90;;;;;;5076799;28;20502;-67